Ana Sayfa
METAR-TAF:

METAR-TAF

Havaalanları :

Bacău, Romanya

Enlem: 46-35N, Boylam: 026-58E, yükseklik: 184 m

Güncel hava durumu gözlemi

Rapor saat 15:30 UTC de 14 dakika önce yapıldı.
Rüzgar kuzeydoğudan 6 kt
Sıcaklık 25°C
Nem 36%
Basınç 1021 hPa
Görüş mesafesi 10 km veya daha fazla
5500 ft yükseklikte az bulutlu, Kümülonimbus.

METAR: LRBC 261530Z 05006KT 9999 FEW055CB 25/09 Q1021

Saat: 18:44 (15:44 UTC)


TAF: eksik

4.000'den fazla havaalanı için hava durumu gözlemleri ve tahminleri (METAR ve TAF raporları).

Kullanılabilir istasyonlar harita üzerinde sarı ve kırmızı noktalarla gösterilir.

İstasyonun adını görmek için fareyi noktanın üzerinde gezdirin.

Sonrasında hava gözlem ve tahminlerini görmek için tıklayın.

Haritayı değiştirmek için: yaklaştırmak için siyah artı işaretli yeşil düğmeye ve uzaklaştırmak için de eksi işaretli düğmeye hızla tıklayın; bitişik haritalar için yeşil okları kullanın.


METAR-TAF: